This is the latest recevied weather packets stored in our database for station/object ENST. If no packets are shown the sender has not sent any weather packets the latest 1 day(s).
| Time | Temp. | Humidity | Pressure | Rain* | Wind** | Luminosity | Snow |
|---|---|---|---|---|---|---|---|
| 1778058187 | 2.78° C | 86% | 1008 hPa | - | 0.89 m/s, 0° | - | - |
| 1778056387 | 1.67° C | 93% | 1008 hPa | - | 0.89 m/s, 0° | - | - |
| 1778054586 | 3.89° C | 80% | 1008 hPa | - | 0.89 m/s, 0° | - | - |
| 1778052787 | 5.56° C | 75% | 1007 hPa | - | 2.24 m/s, 220° | - | - |
| 1778050986 | 5° C | 80% | 1007 hPa | - | 3.13 m/s, 230° | - | - |
| 1778049186 | 5° C | 80% | 1007 hPa | - | 3.13 m/s, 240° | - | - |
| 1778047386 | 3.89° C | 80% | 1007 hPa | - | 0 m/s | - | - |
| 1778045587 | 2.78° C | 86% | 1006 hPa | - | 0.89 m/s, 0° | - | - |
| 1778043787 | 2.78° C | 93% | 1006 hPa | - | 3.58 m/s, 190° | - | - |
| 1778041987 | 2.78° C | 93% | 1006 hPa | - | 3.58 m/s, 190° | - | - |
| 1778040187 | 2.78° C | 93% | 1006 hPa | - | 3.58 m/s, 190° | - | - |
| 1778038387 | 2.78° C | 86% | 1006 hPa | - | 3.58 m/s, 180° | - | - |
| 1778036587 | 1.67° C | 93% | 1005 hPa | - | 3.58 m/s, 180° | - | - |
| 1778034786 | 2.78° C | 80% | 1005 hPa | - | 3.13 m/s, 200° | - | - |
| 1778032986 | 2.78° C | 80% | 1005 hPa | - | 4.02 m/s, 250° | - | - |
| 1778031187 | 3.89° C | 80% | 1005 hPa | - | 5.36 m/s, 280° | - | - |
| 1778029387 | 5° C | 75% | 1005 hPa | - | 3.13 m/s, 290° | - | - |
| 1778027586 | 5° C | 75% | 1004 hPa | - | 2.24 m/s, 260° | - | - |
| 1778025787 | 3.89° C | 75% | 1004 hPa | - | 3.13 m/s, 280° | - | - |
| 1778023987 | 3.89° C | 80% | 1004 hPa | - | 2.68 m/s, 260° | - | - |
| 1778022186 | 2.78° C | 86% | 1004 hPa | - | 2.24 m/s, 270° | - | - |
| 1778020386 | 2.78° C | 86% | 1004 hPa | - | 0.45 m/s, 0° | - | - |
| 1778018586 | 3.89° C | 75% | 1004 hPa | - | 2.68 m/s, 350° | - | - |
| 1778016786 | 3.89° C | 80% | 1003 hPa | - | 4.02 m/s, 310° | - | - |
| 1778014986 | 3.89° C | 86% | 1003 hPa | - | 4.47 m/s, 230° | - | - |
* Rain since midnight (hover to see other rain measurements)
** Current wind speed in m/s (hover to see current wind gust speed)